»·PEaware :: N739VN KSMX-KBFL

N739VN :: KSMX-KBFL

FLIGHT INFORMATION

Flight Status: Arrived
Operator: Privately registered:
United States
More flights under this callsign
Pilot: William R. (21243)
Aircraft: CESSNA 172 SKYHAWK
(C172)
More flights by this aircraft type
Origin: KSMX Santa Maria Pub/Capt Hancock
United States
Destination: KBFL Meadows
United States
More flights between these airports :: More routes between these airports
Route:
File this flight plan on PilotEdge
Remarks: CAT 05
Altitude:
(Current/Filed)
3,000ft
Speed:
(Current/Filed)
120kts
Departed: 09-Mar-19 04:10 PM
Arrived: 09-Mar-19 04:56 PM
Distance/Time
Traveled:
76nm/0:46
Distance/Time
To Go:
Arrived

Flight Plot

Page will automatically refresh every two minutes.


Map Options




Map Legend


Flown Route
Filed Route
Departure Airport
Arrival Airport
Navaid (VOR, NDB)
Fix

Horizontal Profiles

Position Reports

Time Latitude Longitude Heading Altitude Ground
Speed
09-Mar-19 16:04 34.890854 -120.449123 30 265ft 0kts
09-Mar-19 16:05 34.890854 -120.449123 30 265ft 0kts
09-Mar-19 16:06 34.890854 -120.449123 29 265ft 0kts
09-Mar-19 16:07 34.891356 -120.447199 35 265ft 1kts
09-Mar-19 16:08 34.892024 -120.446386 47 265ft 0kts
09-Mar-19 16:09 34.898730 -120.452660 313 386ft 92kts
09-Mar-19 16:10 34.921681 -120.469922 337 1372ft 100kts
09-Mar-19 16:11 34.947893 -120.484760 324 2242ft 104kts
09-Mar-19 16:12 34.973449 -120.502575 328 3024ft 109kts
09-Mar-19 16:13 35.004137 -120.517015 351 3431ft 124kts
09-Mar-19 16:14 35.026057 -120.485269 81 3530ft 153kts
09-Mar-19 16:15 35.035010 -120.435666 74 3247ft 135kts
09-Mar-19 16:16 35.045069 -120.392289 75 3153ft 130kts
09-Mar-19 16:17 35.054544 -120.350130 75 3154ft 127kts
09-Mar-19 16:18 35.063936 -120.308637 74 3155ft 126kts
09-Mar-19 16:19 35.072592 -120.266612 76 3142ft 126kts
09-Mar-19 16:20 35.081036 -120.225799 80 3239ft 123kts
09-Mar-19 16:21 35.088995 -120.184974 78 3316ft 123kts
09-Mar-19 16:22 35.098123 -120.144591 73 3384ft 123kts
09-Mar-19 16:23 35.109134 -120.101606 77 3289ft 134kts
09-Mar-19 16:24 35.116728 -120.056876 79 3142ft 134kts
09-Mar-19 16:25 35.123355 -120.012924 78 3244ft 125kts
09-Mar-19 16:26 35.132772 -119.973372 74 3540ft 118kts
09-Mar-19 16:27 35.142279 -119.935112 74 3817ft 118kts
09-Mar-19 16:28 35.153290 -119.897233 68 4095ft 118kts
09-Mar-19 16:30 35.161587 -119.858402 84 4352ft 117kts
09-Mar-19 16:31 35.165706 -119.818209 85 4541ft 120kts
09-Mar-19 16:32 35.176265 -119.779534 69 4740ft 120kts
09-Mar-19 16:33 35.189384 -119.741326 69 4889ft 122kts
09-Mar-19 16:34 35.202624 -119.702948 64 4965ft 127kts
09-Mar-19 16:35 35.218241 -119.657292 70 3792ft 153kts
09-Mar-19 16:36 35.228024 -119.610280 80 3093ft 136kts
09-Mar-19 16:37 35.236369 -119.565925 66 2515ft 126kts
09-Mar-19 16:38 35.247862 -119.528535 70 2389ft 116kts
09-Mar-19 16:39 35.256580 -119.490435 75 2435ft 115kts
09-Mar-19 16:40 35.266399 -119.452653 63 2566ft 116kts
09-Mar-19 16:41 35.280546 -119.416744 64 2700ft 117kts
09-Mar-19 16:42 35.292918 -119.379691 66 2830ft 117kts
09-Mar-19 16:43 35.306223 -119.343006 68 2953ft 117kts
09-Mar-19 16:44 35.314716 -119.304215 73 3063ft 118kts
09-Mar-19 16:45 35.327104 -119.266649 74 3128ft 118kts
09-Mar-19 16:46 35.340492 -119.226133 52 2397ft 148kts
09-Mar-19 16:47 35.360968 -119.194749 63 1942ft 95kts
09-Mar-19 16:48 35.377583 -119.168917 43 1748ft 102kts
09-Mar-19 16:48 35.392112 -119.147442 55 1693ft 95kts
09-Mar-19 16:49 35.409783 -119.123906 41 1633ft 93kts
09-Mar-19 16:51 35.424497 -119.087435 81 1141ft 111kts
09-Mar-19 16:51 35.418640 -119.063918 130 1249ft 89kts
09-Mar-19 16:52 35.402193 -119.041169 116 1410ft 90kts
09-Mar-19 16:53 35.416371 -119.035231 322 1001ft 86kts
09-Mar-19 16:55 35.433510 -119.055786 315 537ft 69kts
09-Mar-19 16:55 35.437854 -119.060388 6 510ft 0kts
09-Mar-19 16:56 35.438239 -119.059761 85 510ft 0kts
09-Mar-19 16:57 35.437622 -119.056938 70 510ft 13kts
09-Mar-19 16:58 35.437754 -119.056372 79 510ft 10kts
09-Mar-19 16:59 35.437754 -119.056372 79 510ft 10kts
09-Mar-19 17:00 35.437754 -119.056372 79 510ft 10kts
09-Mar-19 17:01 35.437754 -119.056372 79 510ft 10kts
09-Mar-19 17:02 35.437754 -119.056372 79 510ft 10kts
09-Mar-19 17:03 35.437754 -119.056372 79 510ft 10kts
09-Mar-19 17:04 35.437754 -119.056372 79 510ft 10kts
09-Mar-19 17:05 35.437754 -119.056372 79 510ft 10kts
09-Mar-19 17:06 35.437754 -119.056372 79 510ft 10kts
09-Mar-19 17:07 35.437754 -119.056372 79 510ft 10kts
09-Mar-19 17:08 35.437754 -119.056372 79 510ft 10kts
09-Mar-19 17:09 35.437754 -119.056372 79 510ft 10kts
09-Mar-19 17:10 35.437754 -119.056372 79 510ft 10kts

Navigation Log

Ident Type
Flight plan parsing failed, navigation log unavailable